Atlas — YP3292 — position and weather

sailwx.info

Track history (hours):
 
Tides and Currents Weather Stations Pressure Air Temp Water Temp Dewpoint Dewpoint Depression Visibility Wind Speed Wind Dir Waves Ship Positions

Atlas

Last reported at 2018-Feb-18 19:11 UTC. Time now 2018-Feb-22 17:11 UTC.
Position N 44°31' E 022°12'.

Length 110 m; draft 0.3 m.

Type: Tanker. MMSI: 264163292.

Date/timePositionNaut miles runAvg speedWind from/ knotsBaromVisibWave heightAir tempDewpointWater temp
2018-Feb-18 19:11N 44°31' E 022°12'2 8.9
2018-Feb-18 19:00N 44°30' E 022°12'4 7.1
2018-Feb-18 18:30N 44°29' E 022°07'4 8.6
2018-Feb-18 18:00N 44°32' E 022°03'16 7.7
2018-Feb-18 15:55N 44°39' E 021°42'3 8.0
2018-Feb-18 15:31N 44°42' E 021°39'4 8.2
2018-Feb-18 15:01N 44°45' E 021°36'4 7.1
2018-Feb-18 14:31N 44°46' E 021°31'0 0.1
2018-Feb-18 13:59N 44°46' E 021°31'0 0.0
2018-Feb-18 13:22N 44°46' E 021°31'0 0.0
2018-Feb-18 12:58N 44°46' E 021°31'0 0.1
2018-Feb-18 12:30N 44°46' E 021°31'3 6.8
2018-Feb-18 12:00N 44°46' E 021°26'7 6.8
2018-Feb-18 10:55N 44°48' E 021°16'4 8.7
2018-Feb-18 10:30N 44°46' E 021°12'4 8.7
2018-Feb-18 10:00N 44°44' E 021°06'4 8.8
2018-Feb-18 09:30N 44°43' E 021°00'4 8.8
2018-Feb-18 09:00N 44°40' E 020°55'4 8.9
2018-Feb-18 08:30N 44°39' E 020°49'4 8.7
2018-Feb-18 08:00N 44°41' E 020°43'4 8.9
2018-Feb-18 07:30N 44°44' E 020°40'4 8.0
2018-Feb-18 07:00N 44°48' E 020°38'3 6.8
2018-Feb-18 06:30N 44°51' E 020°36'4 8.9
2018-Feb-18 06:01N 44°50' E 020°30'4 8.9
2018-Feb-18 05:30N 44°51' E 020°24'4 8.7
2018-Feb-18 05:01N 44°55' E 020°20'4 8.8
2018-Feb-18 04:31N 44°58' E 020°17'4 8.2
2018-Feb-18 04:00N 45°01' E 020°22'4 8.7
2018-Feb-18 03:30N 45°05' E 020°19'4 8.9
2018-Feb-18 03:00N 45°09' E 020°16'4 8.5
2018-Feb-18 02:30N 45°11' E 020°11'2 3.7
2018-Feb-18 02:00N 45°11' E 020°09'3 5.3
2018-Feb-18 01:30N 45°10' E 020°05'4 8.8
2018-Feb-18 01:00N 45°11' E 019°59'4 8.8
2018-Feb-18 00:31N 45°14' E 019°55'2 4.7
2018-Feb-18 00:01N 45°15' E 019°52'4 7.4
2018-Feb-17 23:31N 45°14' E 019°47'4 8.1
2018-Feb-17 23:00N 45°14' E 019°41'7 6.8
2018-Feb-17 22:01N 45°15' E 019°32'1 9.0
2018-Feb-17 21:53N 45°15' E 019°30'3 8.9
2018-Feb-17 21:30N 45°14' E 019°25'5 9.1
2018-Feb-17 21:00N 45°14' E 019°19'5 9.1
2018-Feb-17 20:30N 45°16' E 019°13'5 9.2
2018-Feb-17 20:00N 45°18' E 019°07'4 7.6
2018-Feb-17 19:30N 45°21' E 019°04'4 8.7
2018-Feb-17 19:00N 45°23' E 018°58'4 7.2
2018-Feb-17 18:30N 45°25' E 019°02'4 7.8
2018-Feb-17 18:00N 45°29' E 018°59'4 7.0
2018-Feb-17 17:30N 45°29' E 019°04'3 5.6
2018-Feb-17 17:00N 45°32' E 019°04'3 6.1
2018-Feb-17 16:30N 45°32' E 018°59'4 8.0
2018-Feb-17 16:00N 45°34' E 018°54'4 7.3
2018-Feb-17 15:30N 45°37' E 018°54'4 8.0
2018-Feb-17 15:00N 45°40' E 018°58'4 8.5
2018-Feb-17 14:30N 45°43' E 018°54'4 8.1
2018-Feb-17 14:00N 45°47' E 018°52'4 1.9
2018-Feb-17 12:03N 45°51' E 018°52'0 0.3
2018-Feb-17 12:00N 45°51' E 018°52'2 3.5
2018-Feb-17 11:29N 45°52' E 018°50'4 9.0
2018-Feb-17 11:00N 45°56' E 018°47'4 1.3
2018-Feb-17 07:59N 45°59' E 018°43'2 0.1
2018-Feb-15 11:11N 46°01' E 018°41'0 0.4
2018-Feb-15 10:11N 46°00' E 018°41'0 0.0
2018-Feb-15 09:50N 46°00' E 018°41'0 0.0
2018-Feb-15 09:20N 46°00' E 018°41'0 0.0
2018-Feb-15 08:49N 46°00' E 018°41'0 0.0
2018-Feb-15 08:28N 46°00' E 018°41'2 5.0
2018-Feb-15 08:01N 45°59' E 018°43'4 7.2
2018-Feb-15 07:29N 45°56' E 018°47'3 7.2
2018-Feb-15 07:00N 45°53' E 018°50'2 1.8
2018-Feb-15 05:40N 45°51' E 018°52'0 0.0
2018-Feb-15 05:30N 45°51' E 018°52'0 0.4
2018-Feb-15 05:00N 45°51' E 018°52'0 0.0
2018-Feb-15 04:30N 45°51' E 018°52'0 0.3
2018-Feb-15 03:49N 45°51' E 018°52'1 4.1
2018-Feb-15 03:30N 45°50' E 018°51'3 5.7
2018-Feb-15 03:01N 45°47' E 018°53'3 6.4
2018-Feb-15 02:31N 45°44' E 018°54'3 6.6
2018-Feb-15 02:01N 45°41' E 018°56'2 4.6
2018-Feb-15 01:30N 45°39' E 018°57'3 5.9
2018-Feb-15 01:01N 45°36' E 018°55'3 5.6
2018-Feb-15 00:31N 45°33' E 018°54'3 6.6
2018-Feb-15 00:01N 45°32' E 018°59'2 4.5
2018-Feb-14 23:31N 45°32' E 019°02'3 6.6
2018-Feb-14 23:01N 45°31' E 019°06'3 6.4
2018-Feb-14 22:31N 45°29' E 019°02'2 4.7
2018-Feb-14 22:01N 45°28' E 018°59'3 6.5
2018-Feb-14 21:31N 45°25' E 019°02'3 6.4
2018-Feb-14 21:01N 45°23' E 018°58'4 6.9
2018-Feb-14 20:27N 45°21' E 019°02'3 6.4
2018-Feb-14 20:00N 45°19' E 019°06'3 6.4
2018-Feb-14 19:30N 45°17' E 019°09'4 7.2
2018-Feb-14 19:00N 45°15' E 019°14'4 7.0
2018-Feb-14 18:30N 45°14' E 019°18'4 7.3
2018-Feb-14 18:00N 45°14' E 019°24'4 7.2
2018-Feb-14 17:26N 45°14' E 019°29'3 5.3
2018-Feb-14 16:48N 45°13' E 019°34'2 5.7
2018-Feb-14 16:25N 45°13' E 019°37'3 7.2
2018-Feb-14 16:00N 45°14' E 019°41'4 7.5
2018-Feb-14 15:30N 45°14' E 019°46'3 6.9
2018-Feb-14 15:00N 45°14' E 019°51'1 2.2
2018-Feb-14 14:30N 45°15' E 019°51'0 0.0
2018-Feb-14 14:00N 45°15' E 019°51'0 0.0
2018-Feb-14 13:30N 45°15' E 019°51'0 1.0
2018-Feb-14 13:00N 45°16' E 019°52'3 6.2
2018-Feb-14 12:30N 45°14' E 019°55'4 7.4
2018-Feb-14 12:00N 45°11' E 019°58'0 0.6
2018-Feb-14 11:27N 45°11' E 019°59'0 0.0
2018-Feb-14 10:44N 45°11' E 019°59'0 0.0
2018-Feb-14 10:12N 45°11' E 019°59'0 0.0
2018-Feb-14 10:00N 45°11' E 019°59'0 0.0
2018-Feb-14 09:14N 45°11' E 019°59'0 0.0
2018-Feb-14 08:58N 45°11' E 019°59'0 0.0
2018-Feb-14 08:15N 45°11' E 019°59'0 0.0
2018-Feb-14 07:59N 45°11' E 019°59'0 0.0
2018-Feb-14 07:24N 45°11' E 019°59'0 0.0
2018-Feb-14 07:00N 45°11' E 019°59'0 0.0
2018-Feb-14 06:30N 45°11' E 019°59'0 0.0
2018-Feb-14 05:58N 45°11' E 019°59'0 0.0
2018-Feb-14 05:29N 45°11' E 019°59'0 0.0
2018-Feb-14 04:59N 45°11' E 019°59'0 0.0
2018-Feb-14 04:28N 45°11' E 019°59'0 0.0
2018-Feb-14 03:58N 45°11' E 019°59'0 0.0
2018-Feb-14 03:28N 45°11' E 019°59'0 0.0
2018-Feb-14 02:58N 45°11' E 019°59'0 0.0
2018-Feb-14 02:28N 45°11' E 019°59'0 0.0
2018-Feb-14 01:58N 45°11' E 019°59'0 0.0
2018-Feb-14 01:28N 45°11' E 019°59'0 0.0
2018-Feb-14 00:58N 45°11' E 019°59'0 0.0
2018-Feb-14 00:28N 45°11' E 019°59'0 0.0
2018-Feb-13 23:58N 45°11' E 019°59'0 0.0
2018-Feb-13 23:28N 45°11' E 019°59'0 0.0
2018-Feb-13 22:58N 45°11' E 019°59'0 0.0
2018-Feb-13 22:28N 45°11' E 019°59'0 0.0
2018-Feb-13 21:58N 45°11' E 019°59'0 0.0
2018-Feb-13 21:28N 45°11' E 019°59'0 0.0
2018-Feb-13 20:58N 45°11' E 019°59'0 0.0
2018-Feb-13 20:28N 45°11' E 019°59'0 0.0
2018-Feb-13 19:58N 45°11' E 019°59'0 0.0
2018-Feb-13 19:28N 45°11' E 019°59'0 0.0
2018-Feb-13 18:58N 45°11' E 019°59'0 0.0
2018-Feb-13 18:28N 45°11' E 019°59'0 0.0
2018-Feb-13 17:58N 45°11' E 019°59'0 0.0
2018-Feb-13 17:28N 45°11' E 019°59'0 0.0
2018-Feb-13 16:58N 45°11' E 019°59'0 0.0
2018-Feb-13 16:28N 45°11' E 019°59'0 0.0
2018-Feb-13 15:58N 45°11' E 019°59'0 0.0
2018-Feb-13 15:30N 45°11' E 019°59'0 0.0
2018-Feb-13 15:00N 45°11' E 019°59'0 0.0
2018-Feb-13 14:30N 45°11' E 019°59'0 0.0
2018-Feb-13 13:59N 45°11' E 019°59'0 0.0
2018-Feb-13 13:29N 45°11' E 019°59'0 0.0
2018-Feb-13 12:59N 45°11' E 019°59'0 0.0
2018-Feb-13 12:30N 45°11' E 019°59'0 0.0
2018-Feb-13 11:58N 45°11' E 019°59'0 0.0
2018-Feb-13 11:28N 45°11' E 019°59'0 0.0
2018-Feb-13 10:58N 45°11' E 019°59'0 0.0
2018-Feb-13 10:30N 45°11' E 019°59'0 0.0
2018-Feb-13 10:00N 45°11' E 019°59'0 0.0
2018-Feb-13 09:30N 45°11' E 019°59'0 0.0
2018-Feb-13 08:59N 45°11' E 019°59'0 0.0
2018-Feb-13 08:28N 45°11' E 019°59'0 0.0
2018-Feb-13 07:58N 45°11' E 019°59'0 0.0
2018-Feb-13 07:28N 45°11' E 019°59'0 0.0
2018-Feb-13 06:59N 45°11' E 019°59'0 0.0
2018-Feb-13 06:24N 45°11' E 019°59'0 0.0
2018-Feb-13 06:00N 45°11' E 019°59'0 0.0
2018-Feb-13 05:30N 45°11' E 019°59'0 0.0
2018-Feb-13 04:58N 45°11' E 019°59'0 0.0
2018-Feb-13 04:28N 45°11' E 019°59'0 0.0
2018-Feb-13 03:58N 45°11' E 019°59'0 0.0
2018-Feb-13 03:28N 45°11' E 019°59'0 0.1
2018-Feb-13 02:58N 45°11' E 019°59'0 0.1
2018-Feb-13 02:28N 45°11' E 019°59'0 0.3
2018-Feb-13 01:53N 45°11' E 019°59'0 0.1
2018-Feb-13 01:30N 45°11' E 019°58'0 0.0
2018-Feb-13 01:00N 45°11' E 019°58'0 0.0
2018-Feb-13 00:30N 45°11' E 019°58'0 0.0
2018-Feb-13 00:00N 45°11' E 019°58'0 0.0
2018-Feb-12 23:30N 45°11' E 019°58'0 0.0
2018-Feb-12 23:00N 45°11' E 019°58'0 0.0
2018-Feb-12 22:30N 45°11' E 019°58'0 0.0
2018-Feb-12 22:00N 45°11' E 019°58'0 0.0
2018-Feb-12 21:30N 45°11' E 019°58'0 0.0
2018-Feb-12 20:58N 45°11' E 019°58'0 0.0
2018-Feb-12 20:28N 45°11' E 019°58'0 0.0
2018-Feb-12 19:58N 45°11' E 019°58'0 0.0
2018-Feb-12 19:28N 45°11' E 019°58'0 0.0
2018-Feb-12 18:58N 45°11' E 019°58'0 0.0
2018-Feb-12 18:28N 45°11' E 019°58'0 0.0
2018-Feb-12 17:58N 45°11' E 019°58'0 0.0
2018-Feb-12 17:28N 45°11' E 019°58'0 0.0
2018-Feb-12 16:58N 45°11' E 019°58'0 0.0
2018-Feb-12 16:28N 45°11' E 019°58'0 0.0
2018-Feb-12 15:58N 45°11' E 019°58'0 0.0
2018-Feb-12 15:14N 45°11' E 019°58'0 0.0
2018-Feb-12 14:51N 45°11' E 019°58'0 0.0
2018-Feb-12 14:28N 45°11' E 019°58'0 0.0
2018-Feb-12 13:55N 45°11' E 019°58'0 0.0
2018-Feb-12 13:21N 45°11' E 019°58'0 0.0
2018-Feb-12 12:59N 45°11' E 019°58'0 0.0
2018-Feb-12 12:30N 45°11' E 019°58'2 3.5
2018-Feb-12 12:01N 45°12' E 019°57'4 6.7
2018-Feb-12 11:25N 45°15' E 019°54'0 0.0
2018-Feb-12 10:52N 45°15' E 019°54'0 0.0
2018-Feb-12 10:25N 45°15' E 019°54'0 0.0
2018-Feb-12 09:51N 45°15' E 019°54'0 0.0
2018-Feb-12 09:29N 45°15' E 019°54'0 0.0
2018-Feb-12 08:48N 45°15' E 019°54'0 0.0
2018-Feb-12 08:25N 45°15' E 019°54'0 0.0
2018-Feb-12 07:52N 45°15' E 019°54'3 0.2
2018-Feb-11 17:40N 45°13' E 019°56'1 6.4
2018-Feb-11 17:30N 45°12' E 019°57'3 6.1
2018-Feb-11 16:58N 45°10' E 020°02'3 6.0
2018-Feb-11 16:28N 45°10' E 020°06'3 6.1
2018-Feb-11 16:00N 45°11' E 020°10'3 6.2
2018-Feb-11 15:30N 45°10' E 020°14'3 6.4
2018-Feb-11 15:00N 45°08' E 020°17'3 6.0
2018-Feb-11 14:30N 45°05' E 020°19'3 6.1
2018-Feb-11 14:00N 45°03' E 020°22'3 5.2
2018-Feb-11 13:30N 45°00' E 020°20'3 5.5
2018-Feb-11 13:00N 44°58' E 020°17'3 5.7
2018-Feb-11 12:30N 44°56' E 020°19'3 6.6
2018-Feb-11 12:00N 44°53' E 020°21'3 6.7
2018-Feb-11 11:30N 44°51' E 020°25'3 6.6
2018-Feb-11 11:00N 44°50' E 020°29'3 6.4
2018-Feb-11 10:30N 44°51' E 020°34'3 6.0
2018-Feb-11 10:00N 44°51' E 020°38'3 5.6
2018-Feb-11 09:30N 44°48' E 020°38'3 6.1
2018-Feb-11 09:00N 44°45' E 020°38'8 6.2
2018-Feb-11 07:42N 44°40' E 020°47'3 6.0
2018-Feb-11 07:14N 44°40' E 020°51'1 6.3
2018-Feb-11 07:00N 44°40' E 020°53'3 6.2
2018-Feb-11 06:29N 44°41' E 020°57'3 6.4
2018-Feb-11 06:00N 44°43' E 021°01'19 5.7
2018-Feb-11 02:44N 44°46' E 021°26'2 6.3
2018-Feb-11 02:29N 44°46' E 021°28'2 3.5
2018-Feb-11 01:57N 44°46' E 021°31'0 0.0
2018-Feb-11 01:30N 44°46' E 021°31'0 0.0
2018-Feb-11 00:58N 44°46' E 021°31'0 0.0
2018-Feb-11 00:28N 44°46' E 021°31'0 0.0
2018-Feb-10 23:58N 44°46' E 021°31'0 0.1
2018-Feb-10 23:30N 44°46' E 021°31'1 2.4
2018-Feb-10 23:01N 44°46' E 021°33'3 5.7
2018-Feb-10 22:30N 44°45' E 021°36'3 5.8
2018-Feb-10 22:01N 44°42' E 021°38'3 6.3
2018-Feb-10 21:30N 44°40' E 021°41'13 5.8
2018-Feb-10 19:15N 44°38' E 021°60'1 6.2
2018-Feb-10 19:00N 44°36' E 022°00'3 6.1
2018-Feb-10 18:30N 44°34' E 022°02'3 6.7
2018-Feb-10 18:00N 44°31' E 022°05'3 7.0
2018-Feb-10 17:30N 44°28' E 022°08'3 6.3
2018-Feb-10 17:00N 44°30' E 022°12'  
Track history (hours):
 
Tides and Currents Weather Stations Pressure Air Temp Water Temp Dewpoint Dewpoint Depression Visibility Wind Speed Wind Dir Waves Ship Positions

Atlas

Last reported at 2018-Feb-18 19:11 UTC. Time now 2018-Feb-22 17:11 UTC.
Position N 44°31' E 022°12'.

Length 110 m; draft 0.3 m.

Type: Tanker. MMSI: 264163292.

Date/timePositionNaut miles runAvg speedWind from/ knotsBaromVisibWave heightAir tempDewpointWater temp
2018-Feb-18 19:11N 44°31' E 022°12'2 8.9
2018-Feb-18 19:00N 44°30' E 022°12'4 7.1
2018-Feb-18 18:30N 44°29' E 022°07'4 8.6
2018-Feb-18 18:00N 44°32' E 022°03'16 7.7
2018-Feb-18 15:55N 44°39' E 021°42'3 8.0
2018-Feb-18 15:31N 44°42' E 021°39'4 8.2
2018-Feb-18 15:01N 44°45' E 021°36'4 7.1
2018-Feb-18 14:31N 44°46' E 021°31'0 0.1
2018-Feb-18 13:59N 44°46' E 021°31'0 0.0
2018-Feb-18 13:22N 44°46' E 021°31'0 0.0
2018-Feb-18 12:58N 44°46' E 021°31'0 0.1
2018-Feb-18 12:30N 44°46' E 021°31'3 6.8
2018-Feb-18 12:00N 44°46' E 021°26'7 6.8
2018-Feb-18 10:55N 44°48' E 021°16'4 8.7
2018-Feb-18 10:30N 44°46' E 021°12'4 8.7
2018-Feb-18 10:00N 44°44' E 021°06'4 8.8
2018-Feb-18 09:30N 44°43' E 021°00'4 8.8
2018-Feb-18 09:00N 44°40' E 020°55'4 8.9
2018-Feb-18 08:30N 44°39' E 020°49'4 8.7
2018-Feb-18 08:00N 44°41' E 020°43'4 8.9
2018-Feb-18 07:30N 44°44' E 020°40'4 8.0
2018-Feb-18 07:00N 44°48' E 020°38'3 6.8
2018-Feb-18 06:30N 44°51' E 020°36'4 8.9
2018-Feb-18 06:01N 44°50' E 020°30'4 8.9
2018-Feb-18 05:30N 44°51' E 020°24'4 8.7
2018-Feb-18 05:01N 44°55' E 020°20'4 8.8
2018-Feb-18 04:31N 44°58' E 020°17'4 8.2
2018-Feb-18 04:00N 45°01' E 020°22'4 8.7
2018-Feb-18 03:30N 45°05' E 020°19'4 8.9
2018-Feb-18 03:00N 45°09' E 020°16'4 8.5
2018-Feb-18 02:30N 45°11' E 020°11'2 3.7
2018-Feb-18 02:00N 45°11' E 020°09'3 5.3
2018-Feb-18 01:30N 45°10' E 020°05'4 8.8
2018-Feb-18 01:00N 45°11' E 019°59'4 8.8
2018-Feb-18 00:31N 45°14' E 019°55'2 4.7
2018-Feb-18 00:01N 45°15' E 019°52'4 7.4
2018-Feb-17 23:31N 45°14' E 019°47'4 8.1
2018-Feb-17 23:00N 45°14' E 019°41'7 6.8
2018-Feb-17 22:01N 45°15' E 019°32'1 9.0
2018-Feb-17 21:53N 45°15' E 019°30'3 8.9
2018-Feb-17 21:30N 45°14' E 019°25'5 9.1
2018-Feb-17 21:00N 45°14' E 019°19'5 9.1
2018-Feb-17 20:30N 45°16' E 019°13'5 9.2
2018-Feb-17 20:00N 45°18' E 019°07'4 7.6
2018-Feb-17 19:30N 45°21' E 019°04'4 8.7
2018-Feb-17 19:00N 45°23' E 018°58'4 7.2
2018-Feb-17 18:30N 45°25' E 019°02'4 7.8
2018-Feb-17 18:00N 45°29' E 018°59'4 7.0
2018-Feb-17 17:30N 45°29' E 019°04'3 5.6
2018-Feb-17 17:00N 45°32' E 019°04'3 6.1
2018-Feb-17 16:30N 45°32' E 018°59'4 8.0
2018-Feb-17 16:00N 45°34' E 018°54'4 7.3
2018-Feb-17 15:30N 45°37' E 018°54'4 8.0
2018-Feb-17 15:00N 45°40' E 018°58'4 8.5
2018-Feb-17 14:30N 45°43' E 018°54'4 8.1
2018-Feb-17 14:00N 45°47' E 018°52'4 1.9
2018-Feb-17 12:03N 45°51' E 018°52'0 0.3
2018-Feb-17 12:00N 45°51' E 018°52'2 3.5
2018-Feb-17 11:29N 45°52' E 018°50'4 9.0
2018-Feb-17 11:00N 45°56' E 018°47'4 1.3
2018-Feb-17 07:59N 45°59' E 018°43'2 0.1
2018-Feb-15 11:11N 46°01' E 018°41'0 0.4
2018-Feb-15 10:11N 46°00' E 018°41'0 0.0
2018-Feb-15 09:50N 46°00' E 018°41'0 0.0
2018-Feb-15 09:20N 46°00' E 018°41'0 0.0
2018-Feb-15 08:49N 46°00' E 018°41'0 0.0
2018-Feb-15 08:28N 46°00' E 018°41'2 5.0
2018-Feb-15 08:01N 45°59' E 018°43'4 7.2
2018-Feb-15 07:29N 45°56' E 018°47'3 7.2
2018-Feb-15 07:00N 45°53' E 018°50'2 1.8
2018-Feb-15 05:40N 45°51' E 018°52'0 0.0
2018-Feb-15 05:30N 45°51' E 018°52'0 0.4
2018-Feb-15 05:00N 45°51' E 018°52'0 0.0
2018-Feb-15 04:30N 45°51' E 018°52'0 0.3
2018-Feb-15 03:49N 45°51' E 018°52'1 4.1
2018-Feb-15 03:30N 45°50' E 018°51'3 5.7
2018-Feb-15 03:01N 45°47' E 018°53'3 6.4
2018-Feb-15 02:31N 45°44' E 018°54'3 6.6
2018-Feb-15 02:01N 45°41' E 018°56'2 4.6
2018-Feb-15 01:30N 45°39' E 018°57'3 5.9
2018-Feb-15 01:01N 45°36' E 018°55'3 5.6
2018-Feb-15 00:31N 45°33' E 018°54'3 6.6
2018-Feb-15 00:01N 45°32' E 018°59'2 4.5
2018-Feb-14 23:31N 45°32' E 019°02'3 6.6
2018-Feb-14 23:01N 45°31' E 019°06'3 6.4
2018-Feb-14 22:31N 45°29' E 019°02'2 4.7
2018-Feb-14 22:01N 45°28' E 018°59'3 6.5
2018-Feb-14 21:31N 45°25' E 019°02'3 6.4
2018-Feb-14 21:01N 45°23' E 018°58'4 6.9
2018-Feb-14 20:27N 45°21' E 019°02'3 6.4
2018-Feb-14 20:00N 45°19' E 019°06'3 6.4
2018-Feb-14 19:30N 45°17' E 019°09'4 7.2
2018-Feb-14 19:00N 45°15' E 019°14'4 7.0
2018-Feb-14 18:30N 45°14' E 019°18'4 7.3
2018-Feb-14 18:00N 45°14' E 019°24'4 7.2
2018-Feb-14 17:26N 45°14' E 019°29'3 5.3
2018-Feb-14 16:48N 45°13' E 019°34'2 5.7
2018-Feb-14 16:25N 45°13' E 019°37'3 7.2
2018-Feb-14 16:00N 45°14' E 019°41'4 7.5
2018-Feb-14 15:30N 45°14' E 019°46'3 6.9
2018-Feb-14 15:00N 45°14' E 019°51'1 2.2
2018-Feb-14 14:30N 45°15' E 019°51'0 0.0
2018-Feb-14 14:00N 45°15' E 019°51'0 0.0
2018-Feb-14 13:30N 45°15' E 019°51'0 1.0
2018-Feb-14 13:00N 45°16' E 019°52'3 6.2
2018-Feb-14 12:30N 45°14' E 019°55'4 7.4
2018-Feb-14 12:00N 45°11' E 019°58'0 0.6
2018-Feb-14 11:27N 45°11' E 019°59'0 0.0
2018-Feb-14 10:44N 45°11' E 019°59'0 0.0
2018-Feb-14 10:12N 45°11' E 019°59'0 0.0
2018-Feb-14 10:00N 45°11' E 019°59'0 0.0
2018-Feb-14 09:14N 45°11' E 019°59'0 0.0
2018-Feb-14 08:58N 45°11' E 019°59'0 0.0
2018-Feb-14 08:15N 45°11' E 019°59'0 0.0
2018-Feb-14 07:59N 45°11' E 019°59'0 0.0
2018-Feb-14 07:24N 45°11' E 019°59'0 0.0
2018-Feb-14 07:00N 45°11' E 019°59'0 0.0
2018-Feb-14 06:30N 45°11' E 019°59'0 0.0
2018-Feb-14 05:58N 45°11' E 019°59'0 0.0
2018-Feb-14 05:29N 45°11' E 019°59'0 0.0
2018-Feb-14 04:59N 45°11' E 019°59'0 0.0
2018-Feb-14 04:28N 45°11' E 019°59'0 0.0
2018-Feb-14 03:58N 45°11' E 019°59'0 0.0
2018-Feb-14 03:28N 45°11' E 019°59'0 0.0
2018-Feb-14 02:58N 45°11' E 019°59'0 0.0
2018-Feb-14 02:28N 45°11' E 019°59'0 0.0
2018-Feb-14 01:58N 45°11' E 019°59'0 0.0
2018-Feb-14 01:28N 45°11' E 019°59'0 0.0
2018-Feb-14 00:58N 45°11' E 019°59'0 0.0
2018-Feb-14 00:28N 45°11' E 019°59'0 0.0
2018-Feb-13 23:58N 45°11' E 019°59'0 0.0
2018-Feb-13 23:28N 45°11' E 019°59'0 0.0
2018-Feb-13 22:58N 45°11' E 019°59'0 0.0
2018-Feb-13 22:28N 45°11' E 019°59'0 0.0
2018-Feb-13 21:58N 45°11' E 019°59'0 0.0
2018-Feb-13 21:28N 45°11' E 019°59'0 0.0
2018-Feb-13 20:58N 45°11' E 019°59'0 0.0
2018-Feb-13 20:28N 45°11' E 019°59'0 0.0
2018-Feb-13 19:58N 45°11' E 019°59'0 0.0
2018-Feb-13 19:28N 45°11' E 019°59'0 0.0
2018-Feb-13 18:58N 45°11' E 019°59'0 0.0
2018-Feb-13 18:28N 45°11' E 019°59'0 0.0
2018-Feb-13 17:58N 45°11' E 019°59'0 0.0
2018-Feb-13 17:28N 45°11' E 019°59'0 0.0
2018-Feb-13 16:58N 45°11' E 019°59'0 0.0
2018-Feb-13 16:28N 45°11' E 019°59'0 0.0
2018-Feb-13 15:58N 45°11' E 019°59'0 0.0
2018-Feb-13 15:30N 45°11' E 019°59'0 0.0
2018-Feb-13 15:00N 45°11' E 019°59'0 0.0
2018-Feb-13 14:30N 45°11' E 019°59'0 0.0
2018-Feb-13 13:59N 45°11' E 019°59'0 0.0
2018-Feb-13 13:29N 45°11' E 019°59'0 0.0
2018-Feb-13 12:59N 45°11' E 019°59'0 0.0
2018-Feb-13 12:30N 45°11' E 019°59'0 0.0
2018-Feb-13 11:58N 45°11' E 019°59'0 0.0
2018-Feb-13 11:28N 45°11' E 019°59'0 0.0
2018-Feb-13 10:58N 45°11' E 019°59'0 0.0
2018-Feb-13 10:30N 45°11' E 019°59'0 0.0
2018-Feb-13 10:00N 45°11' E 019°59'0 0.0
2018-Feb-13 09:30N 45°11' E 019°59'0 0.0
2018-Feb-13 08:59N 45°11' E 019°59'0 0.0
2018-Feb-13 08:28N 45°11' E 019°59'0 0.0
2018-Feb-13 07:58N 45°11' E 019°59'0 0.0
2018-Feb-13 07:28N 45°11' E 019°59'0 0.0
2018-Feb-13 06:59N 45°11' E 019°59'0 0.0
2018-Feb-13 06:24N 45°11' E 019°59'0 0.0
2018-Feb-13 06:00N 45°11' E 019°59'0 0.0
2018-Feb-13 05:30N 45°11' E 019°59'0 0.0
2018-Feb-13 04:58N 45°11' E 019°59'0 0.0
2018-Feb-13 04:28N 45°11' E 019°59'0 0.0
2018-Feb-13 03:58N 45°11' E 019°59'0 0.0
2018-Feb-13 03:28N 45°11' E 019°59'0 0.1
2018-Feb-13 02:58N 45°11' E 019°59'0 0.1
2018-Feb-13 02:28N 45°11' E 019°59'0 0.3
2018-Feb-13 01:53N 45°11' E 019°59'0 0.1
2018-Feb-13 01:30N 45°11' E 019°58'0 0.0
2018-Feb-13 01:00N 45°11' E 019°58'0 0.0
2018-Feb-13 00:30N 45°11' E 019°58'0 0.0
2018-Feb-13 00:00N 45°11' E 019°58'0 0.0
2018-Feb-12 23:30N 45°11' E 019°58'0 0.0
2018-Feb-12 23:00N 45°11' E 019°58'0 0.0
2018-Feb-12 22:30N 45°11' E 019°58'0 0.0
2018-Feb-12 22:00N 45°11' E 019°58'0 0.0
2018-Feb-12 21:30N 45°11' E 019°58'0 0.0
2018-Feb-12 20:58N 45°11' E 019°58'0 0.0
2018-Feb-12 20:28N 45°11' E 019°58'0 0.0
2018-Feb-12 19:58N 45°11' E 019°58'0 0.0
2018-Feb-12 19:28N 45°11' E 019°58'0 0.0
2018-Feb-12 18:58N 45°11' E 019°58'0 0.0
2018-Feb-12 18:28N 45°11' E 019°58'0 0.0
2018-Feb-12 17:58N 45°11' E 019°58'0 0.0
2018-Feb-12 17:28N 45°11' E 019°58'0 0.0
2018-Feb-12 16:58N 45°11' E 019°58'0 0.0
2018-Feb-12 16:28N 45°11' E 019°58'0 0.0
2018-Feb-12 15:58N 45°11' E 019°58'0 0.0
2018-Feb-12 15:14N 45°11' E 019°58'0 0.0
2018-Feb-12 14:51N 45°11' E 019°58'0 0.0
2018-Feb-12 14:28N 45°11' E 019°58'0 0.0
2018-Feb-12 13:55N 45°11' E 019°58'0 0.0
2018-Feb-12 13:21N 45°11' E 019°58'0 0.0
2018-Feb-12 12:59N 45°11' E 019°58'0 0.0
2018-Feb-12 12:30N 45°11' E 019°58'2 3.5
2018-Feb-12 12:01N 45°12' E 019°57'4 6.7
2018-Feb-12 11:25N 45°15' E 019°54'0 0.0
2018-Feb-12 10:52N 45°15' E 019°54'0 0.0
2018-Feb-12 10:25N 45°15' E 019°54'0 0.0
2018-Feb-12 09:51N 45°15' E 019°54'0 0.0
2018-Feb-12 09:29N 45°15' E 019°54'0 0.0
2018-Feb-12 08:48N 45°15' E 019°54'0 0.0
2018-Feb-12 08:25N 45°15' E 019°54'0 0.0
2018-Feb-12 07:52N 45°15' E 019°54'3 0.2
2018-Feb-11 17:40N 45°13' E 019°56'1 6.4
2018-Feb-11 17:30N 45°12' E 019°57'3 6.1
2018-Feb-11 16:58N 45°10' E 020°02'3 6.0
2018-Feb-11 16:28N 45°10' E 020°06'3 6.1
2018-Feb-11 16:00N 45°11' E 020°10'3 6.2
2018-Feb-11 15:30N 45°10' E 020°14'3 6.4
2018-Feb-11 15:00N 45°08' E 020°17'3 6.0
2018-Feb-11 14:30N 45°05' E 020°19'3 6.1
2018-Feb-11 14:00N 45°03' E 020°22'3 5.2
2018-Feb-11 13:30N 45°00' E 020°20'3 5.5
2018-Feb-11 13:00N 44°58' E 020°17'3 5.7
2018-Feb-11 12:30N 44°56' E 020°19'3 6.6
2018-Feb-11 12:00N 44°53' E 020°21'3 6.7
2018-Feb-11 11:30N 44°51' E 020°25'3 6.6
2018-Feb-11 11:00N 44°50' E 020°29'3 6.4
2018-Feb-11 10:30N 44°51' E 020°34'3 6.0
2018-Feb-11 10:00N 44°51' E 020°38'3 5.6
2018-Feb-11 09:30N 44°48' E 020°38'3 6.1
2018-Feb-11 09:00N 44°45' E 020°38'8 6.2
2018-Feb-11 07:42N 44°40' E 020°47'3 6.0
2018-Feb-11 07:14N 44°40' E 020°51'1 6.3
2018-Feb-11 07:00N 44°40' E 020°53'3 6.2
2018-Feb-11 06:29N 44°41' E 020°57'3 6.4
2018-Feb-11 06:00N 44°43' E 021°01'19 5.7
2018-Feb-11 02:44N 44°46' E 021°26'2 6.3
2018-Feb-11 02:29N 44°46' E 021°28'2 3.5
2018-Feb-11 01:57N 44°46' E 021°31'0 0.0
2018-Feb-11 01:30N 44°46' E 021°31'0 0.0
2018-Feb-11 00:58N 44°46' E 021°31'0 0.0
2018-Feb-11 00:28N 44°46' E 021°31'0 0.0
2018-Feb-10 23:58N 44°46' E 021°31'0 0.1
2018-Feb-10 23:30N 44°46' E 021°31'1 2.4
2018-Feb-10 23:01N 44°46' E 021°33'3 5.7
2018-Feb-10 22:30N 44°45' E 021°36'3 5.8
2018-Feb-10 22:01N 44°42' E 021°38'3 6.3
2018-Feb-10 21:30N 44°40' E 021°41'13 5.8
2018-Feb-10 19:15N 44°38' E 021°60'1 6.2
2018-Feb-10 19:00N 44°36' E 022°00'3 6.1
2018-Feb-10 18:30N 44°34' E 022°02'3 6.7
2018-Feb-10 18:00N 44°31' E 022°05'3 7.0
2018-Feb-10 17:30N 44°28' E 022°08'3 6.3
2018-Feb-10 17:00N 44°30' E 022°12'  

Dump ship's entire track history